createdAt,value
2022-10-24T00:01:46.965Z,55.32
2022-10-24T00:04:15.095Z,55.42
2022-10-24T00:06:43.400Z,55.48
2022-10-24T00:09:11.741Z,55.27
2022-10-24T00:11:43.925Z,55.13
2022-10-24T00:14:12.734Z,55.16
2022-10-24T00:16:41.300Z,55.19
2022-10-24T00:19:09.447Z,55.33
2022-10-24T00:21:37.596Z,55.06
2022-10-24T00:24:06.351Z,55.41
2022-10-24T00:26:35.538Z,55.26
2022-10-24T00:29:05.729Z,55.24
2022-10-24T00:31:34.160Z,55.27
2022-10-24T00:34:02.340Z,55.25
2022-10-24T00:36:30.677Z,55.19
2022-10-24T00:38:58.689Z,55.04
2022-10-24T00:41:28.435Z,55.06
2022-10-24T00:44:16.573Z,55.44
2022-10-24T00:46:48.255Z,55.29
2022-10-24T00:49:19.037Z,55.18
2022-10-24T00:51:50.051Z,55.11
2022-10-24T00:54:18.675Z,55.16
2022-10-24T00:56:55.013Z,55.12
2022-10-24T00:59:25.968Z,55.26
2022-10-24T01:01:54.018Z,55.04
2022-10-24T01:04:22.193Z,55.24
2022-10-24T01:07:07.042Z,55.13
2022-10-24T01:09:55.939Z,55.15
2022-10-24T01:12:33.457Z,55.22
2022-10-24T01:15:11.281Z,54.90
2022-10-24T01:17:46.809Z,55.39
2022-10-24T01:20:58.378Z,55.41
2022-10-24T01:24:05.285Z,55.12
2022-10-24T01:27:02.877Z,55.01
2022-10-24T01:29:52.385Z,55.24
2022-10-24T01:32:31.135Z,55.08
2022-10-24T01:35:04.045Z,55.12
2022-10-24T01:37:38.943Z,55.01
2022-10-24T01:40:14.012Z,55.24
2022-10-24T01:42:43.734Z,54.94
2022-10-24T01:45:20.692Z,54.95
2022-10-24T01:47:54.473Z,54.94
2022-10-24T01:50:25.075Z,55.24
2022-10-24T01:52:55.633Z,55.08
2022-10-24T01:55:24.145Z,55.18
2022-10-24T01:57:52.180Z,55.06
2022-10-24T02:00:23.684Z,55.25
2022-10-24T02:02:56.478Z,55.10
2022-10-24T02:05:30.389Z,54.85
2022-10-24T02:08:03.797Z,55.19
2022-10-24T02:10:36.388Z,55.24
2022-10-24T02:13:09.866Z,55.08
2022-10-24T02:15:44.638Z,54.92
2022-10-24T02:18:13.828Z,55.11
2022-10-24T02:20:49.009Z,55.23
2022-10-24T02:23:26.585Z,55.09
2022-10-24T02:25:59.222Z,54.94
2022-10-24T02:28:32.765Z,55.19
2022-10-24T02:31:05.875Z,55.18
2022-10-24T02:33:36.036Z,55.01
2022-10-24T02:36:06.466Z,55.15
2022-10-24T02:38:38.475Z,54.88
2022-10-24T02:41:11.241Z,55.14
2022-10-24T02:43:42.169Z,54.93
2022-10-24T02:46:14.817Z,54.81
2022-10-24T02:48:47.734Z,54.96
2022-10-24T02:51:18.747Z,54.84
2022-10-24T02:53:47.655Z,54.92
2022-10-24T02:56:16.311Z,54.79
2022-10-24T02:58:44.612Z,55.00
2022-10-24T03:01:14.807Z,54.95
2022-10-24T03:03:42.969Z,54.99
2022-10-24T03:06:11.257Z,54.87
2022-10-24T03:08:39.578Z,54.89
2022-10-24T03:11:07.835Z,55.07
2022-10-24T03:13:36.741Z,55.01
2022-10-24T03:16:07.765Z,54.92
2022-10-24T03:18:40.173Z,54.85
2022-10-24T03:21:08.322Z,54.85
2022-10-24T03:23:36.510Z,54.83
2022-10-24T03:26:04.713Z,54.98
2022-10-24T03:28:32.666Z,55.04
2022-10-24T03:31:00.866Z,54.97
2022-10-24T03:33:28.855Z,54.79
2022-10-24T03:35:58.419Z,54.76
2022-10-24T03:38:27.597Z,54.86
2022-10-24T03:40:55.595Z,54.95
2022-10-24T03:43:23.721Z,54.70
2022-10-24T03:45:51.729Z,54.92
2022-10-24T03:48:19.897Z,54.93
2022-10-24T03:50:48.020Z,54.92
2022-10-24T03:53:18.896Z,54.75
2022-10-24T03:55:46.920Z,54.81
2022-10-24T03:58:15.204Z,54.81
2022-10-24T04:00:43.625Z,54.95
2022-10-24T04:03:11.748Z,54.65
2022-10-24T04:05:41.338Z,54.66
2022-10-24T04:08:09.781Z,54.92
2022-10-24T04:10:39.583Z,54.84
2022-10-24T04:13:08.116Z,54.72
2022-10-24T04:15:36.182Z,54.70
2022-10-24T04:18:06.123Z,54.94
2022-10-24T04:20:34.458Z,54.60
2022-10-24T04:23:04.504Z,54.84
2022-10-24T04:25:33.565Z,54.81
2022-10-24T04:28:03.532Z,54.61
2022-10-24T04:30:31.613Z,54.58
2022-10-24T04:32:59.945Z,54.70
2022-10-24T04:35:29.454Z,54.60
2022-10-24T04:37:58.521Z,54.75
2022-10-24T04:40:26.678Z,54.88
2022-10-24T04:42:54.960Z,54.63
2022-10-24T04:45:24.938Z,54.90
2022-10-24T04:47:53.579Z,54.81
2022-10-24T04:50:21.681Z,54.73
2022-10-24T04:52:52.427Z,54.85
2022-10-24T04:55:21.401Z,54.79
2022-10-24T04:57:50.163Z,54.86
2022-10-24T05:00:18.918Z,54.90
2022-10-24T05:02:49.667Z,54.71
2022-10-24T05:05:18.094Z,54.91
2022-10-24T05:07:47.691Z,54.79
2022-10-24T05:10:17.407Z,54.67
2022-10-24T05:12:47.098Z,54.68
2022-10-24T05:15:15.891Z,54.86
2022-10-24T05:17:45.088Z,54.68
2022-10-24T05:20:15.743Z,54.65
2022-10-24T05:22:45.880Z,54.58
2022-10-24T05:25:15.566Z,54.69
2022-10-24T05:27:45.194Z,54.81
2022-10-24T05:30:14.697Z,54.60
2022-10-24T05:32:45.537Z,54.77
2022-10-24T05:35:15.807Z,54.56
2022-10-24T05:37:46.564Z,54.76
2022-10-24T05:40:15.329Z,54.84
2022-10-24T05:42:44.042Z,54.88
2022-10-24T05:45:15.817Z,54.61
2022-10-24T05:47:49.257Z,54.77
2022-10-24T05:50:19.490Z,55.07
2022-10-24T05:52:48.645Z,54.53
2022-10-24T05:55:18.372Z,54.56
2022-10-24T05:57:49.734Z,54.70
2022-10-24T06:00:24.346Z,54.48
2022-10-24T06:02:52.425Z,54.42
2022-10-24T06:05:27.077Z,54.39
2022-10-24T06:07:55.186Z,54.69
2022-10-24T06:10:25.613Z,54.67
2022-10-24T06:12:53.760Z,54.76
2022-10-24T06:15:22.052Z,54.54
2022-10-24T06:17:50.378Z,54.74
2022-10-24T06:20:19.305Z,54.61
2022-10-24T06:22:49.776Z,54.53
2022-10-24T06:25:18.655Z,54.84
2022-10-24T06:27:46.875Z,54.54
2022-10-24T06:30:15.367Z,54.76
2022-10-24T06:32:44.789Z,54.68
2022-10-24T06:35:16.409Z,54.53
2022-10-24T06:37:47.979Z,54.85
2022-10-24T06:40:18.718Z,54.68
2022-10-24T06:42:47.185Z,54.54
2022-10-24T06:45:15.919Z,54.62
2022-10-24T06:47:44.272Z,54.25
2022-10-24T06:50:12.571Z,54.53
2022-10-24T06:52:40.901Z,54.62
2022-10-24T06:55:09.907Z,54.64
2022-10-24T06:57:40.289Z,54.52
2022-10-24T07:00:10.305Z,54.63
2022-10-24T07:02:38.495Z,54.46
2022-10-24T07:05:10.744Z,54.60
2022-10-24T07:07:39.488Z,54.70
2022-10-24T07:10:09.780Z,54.61
2022-10-24T07:12:40.556Z,54.52
2022-10-24T07:15:09.006Z,54.62
2022-10-24T07:17:40.959Z,54.61
2022-10-24T07:20:10.316Z,54.56
2022-10-24T07:22:38.742Z,54.63
2022-10-24T07:25:08.268Z,54.64
2022-10-24T07:27:36.349Z,54.29
2022-10-24T07:30:06.975Z,54.59
2022-10-24T07:32:37.644Z,54.51
2022-10-24T07:35:08.634Z,54.49
2022-10-24T07:37:36.983Z,54.57
2022-10-24T07:40:05.543Z,54.47
2022-10-24T07:42:35.828Z,54.38
2022-10-24T07:45:07.514Z,54.65
2022-10-24T07:47:37.989Z,54.43
2022-10-24T07:50:07.557Z,54.47
2022-10-24T07:52:37.795Z,54.36
2022-10-24T07:55:06.728Z,54.67
2022-10-24T07:57:34.952Z,54.61
2022-10-24T08:00:03.610Z,54.68
2022-10-24T08:02:34.452Z,54.38
2022-10-24T08:05:03.779Z,54.64
2022-10-24T08:07:31.839Z,54.52
2022-10-24T08:10:01.066Z,54.59
2022-10-24T08:12:29.699Z,54.50
2022-10-24T08:14:58.901Z,54.50
2022-10-24T08:17:26.888Z,54.61
2022-10-24T08:19:58.129Z,54.43
2022-10-24T08:22:26.296Z,54.54
2022-10-24T08:24:55.165Z,54.46
2022-10-24T08:27:23.306Z,54.63
2022-10-24T08:29:51.428Z,54.47
2022-10-24T08:32:20.045Z,54.52
2022-10-24T08:34:48.088Z,54.85
2022-10-24T08:37:18.632Z,54.68
2022-10-24T08:39:48.065Z,54.62
2022-10-24T08:42:18.533Z,54.83
2022-10-24T08:44:49.047Z,54.79
2022-10-24T08:47:24.177Z,54.83
2022-10-24T08:49:57.173Z,54.54
2022-10-24T08:52:32.579Z,54.63
2022-10-24T08:55:07.452Z,54.47
2022-10-24T08:57:37.656Z,54.70
2022-10-24T09:00:14.998Z,54.68
2022-10-24T09:02:49.076Z,54.55
2022-10-24T09:05:24.736Z,54.55
2022-10-24T09:08:01.862Z,54.38
2022-10-24T09:10:39.607Z,54.63
2022-10-24T09:13:15.466Z,54.44
2022-10-24T09:15:46.620Z,54.70
2022-10-24T09:18:21.460Z,54.70
2022-10-24T09:20:51.180Z,54.71
2022-10-24T09:23:22.438Z,54.75
2022-10-24T09:25:54.167Z,54.65
2022-10-24T09:28:24.048Z,54.49
2022-10-24T09:30:52.541Z,54.46
2022-10-24T09:33:29.749Z,54.50
2022-10-24T09:36:00.478Z,54.70
2022-10-24T09:38:34.183Z,54.55
2022-10-24T09:41:06.899Z,54.55
2022-10-24T09:43:47.569Z,54.51
2022-10-24T09:46:19.753Z,54.46
2022-10-24T09:48:53.186Z,54.78
2022-10-24T09:51:26.197Z,54.56
2022-10-24T09:54:24.097Z,54.86
2022-10-24T09:56:57.092Z,54.79
2022-10-24T09:59:33.545Z,54.74
2022-10-24T10:02:24.577Z,54.87
2022-10-24T10:05:19.937Z,54.74
2022-10-24T10:07:50.569Z,54.59
2022-10-24T10:10:38.756Z,54.63
2022-10-24T10:13:23.217Z,54.78
2022-10-24T10:15:54.542Z,54.79
2022-10-24T10:18:27.431Z,54.77
2022-10-24T10:21:02.539Z,54.86
2022-10-24T10:23:33.199Z,54.90
2022-10-24T10:26:23.685Z,54.65
2022-10-24T10:28:59.397Z,55.01
2022-10-24T10:31:48.491Z,54.91
2022-10-24T10:34:23.182Z,55.01
2022-10-24T10:37:10.374Z,55.11
2022-10-24T10:40:09.904Z,54.89
2022-10-24T10:42:50.981Z,54.80
2022-10-24T10:45:36.531Z,54.96
2022-10-24T10:48:20.061Z,55.11
2022-10-24T10:50:56.131Z,54.97
2022-10-24T10:53:37.667Z,55.13
2022-10-24T10:56:19.267Z,54.94
2022-10-24T10:58:58.533Z,54.86
2022-10-24T11:01:36.052Z,55.09
2022-10-24T11:04:11.250Z,54.89
2022-10-24T11:06:48.488Z,54.84
2022-10-24T11:09:35.568Z,55.15
2022-10-24T11:12:11.363Z,55.05
2022-10-24T11:14:44.722Z,54.89
2022-10-24T11:17:18.830Z,54.96
2022-10-24T11:20:05.132Z,54.94
2022-10-24T11:22:40.405Z,54.92
2022-10-24T11:25:21.056Z,54.84
2022-10-24T11:27:55.748Z,54.91
2022-10-24T11:30:42.284Z,55.12
2022-10-24T11:33:18.740Z,54.98
2022-10-24T11:36:03.257Z,55.15
2022-10-24T11:38:34.294Z,54.89
2022-10-24T11:41:22.524Z,55.14
2022-10-24T11:43:57.328Z,55.08
2022-10-24T11:46:34.680Z,54.96
2022-10-24T11:49:15.094Z,54.89
2022-10-24T11:51:49.893Z,55.02
2022-10-24T11:54:26.616Z,54.84
2022-10-24T11:57:00.659Z,55.17
2022-10-24T11:59:30.757Z,54.92
2022-10-24T12:02:52.584Z,55.41
2022-10-24T12:05:35.079Z,55.40
2022-10-24T12:08:22.524Z,55.25
2022-10-24T12:11:19.410Z,55.41
2022-10-24T12:14:04.701Z,54.90
2022-10-24T12:16:48.128Z,55.09
2022-10-24T12:19:21.627Z,54.88
2022-10-24T12:21:54.793Z,54.97
2022-10-24T12:24:30.294Z,55.15
2022-10-24T12:27:02.806Z,55.20
2022-10-24T12:29:33.755Z,55.22
2022-10-24T12:32:26.168Z,55.21
2022-10-24T12:35:29.048Z,55.15
2022-10-24T12:37:50.722Z,55.24
2022-10-24T12:40:52.743Z,55.47
2022-10-24T12:43:33.291Z,55.37
2022-10-24T12:46:09.495Z,55.30
2022-10-24T12:48:43.459Z,55.24
2022-10-24T12:51:31.000Z,55.56
2022-10-24T12:54:11.961Z,55.40
2022-10-24T12:57:22.166Z,55.70
2022-10-24T12:59:52.720Z,55.26
2022-10-24T13:02:48.363Z,55.54
2022-10-24T13:05:38.091Z,55.43
2022-10-24T13:08:22.334Z,55.47
2022-10-24T13:11:04.769Z,55.37
2022-10-24T13:13:50.050Z,55.37
2022-10-24T13:16:30.584Z,55.50
2022-10-24T13:19:10.205Z,55.39
2022-10-24T13:21:47.865Z,55.33
2022-10-24T13:24:30.859Z,55.67
2022-10-24T13:27:25.715Z,55.60
2022-10-24T13:30:27.123Z,55.76
2022-10-24T13:33:28.387Z,55.87
2022-10-24T13:35:57.774Z,55.45
2022-10-24T13:38:27.813Z,55.32
2022-10-24T13:40:57.840Z,55.33
2022-10-24T13:43:26.133Z,55.41
2022-10-24T13:46:01.413Z,55.45
2022-10-24T13:48:32.659Z,55.37
2022-10-24T13:51:07.360Z,55.50
2022-10-24T13:53:46.223Z,55.48
2022-10-24T13:56:16.444Z,55.57
2022-10-24T13:58:46.404Z,55.42
2022-10-24T14:01:21.075Z,55.72
2022-10-24T14:03:50.924Z,55.48
2022-10-24T14:06:26.533Z,55.69
2022-10-24T14:09:06.436Z,55.45
2022-10-24T14:11:42.435Z,55.77
2022-10-24T14:14:26.558Z,55.55
2022-10-24T14:17:22.921Z,55.86
2022-10-24T14:19:55.438Z,55.56
2022-10-24T14:22:26.284Z,55.54
2022-10-24T14:24:57.358Z,55.62
2022-10-24T14:27:26.858Z,55.76
2022-10-24T14:29:59.517Z,55.72
2022-10-24T14:32:29.293Z,55.97
2022-10-24T14:34:58.885Z,55.94
2022-10-24T14:37:34.445Z,56.14
2022-10-24T14:40:03.420Z,55.96
2022-10-24T14:42:33.522Z,55.76
2022-10-24T14:45:01.536Z,56.01
2022-10-24T14:47:31.781Z,55.84
2022-10-24T14:50:00.201Z,55.93
2022-10-24T14:52:37.061Z,55.97
2022-10-24T14:55:07.807Z,55.75
2022-10-24T14:57:39.757Z,56.12
2022-10-24T15:00:21.021Z,56.30
2022-10-24T15:02:53.703Z,55.96
2022-10-24T15:05:33.894Z,56.19
2022-10-24T15:08:23.141Z,56.06
2022-10-24T15:11:04.715Z,56.79
2022-10-24T15:13:54.971Z,56.41
2022-10-24T15:16:38.250Z,56.47
2022-10-24T15:19:08.519Z,56.63
2022-10-24T15:21:40.136Z,56.61
2022-10-24T15:24:19.617Z,56.62
2022-10-24T15:26:47.629Z,56.65
2022-10-24T15:29:21.491Z,56.74
2022-10-24T15:31:52.072Z,56.70
2022-10-24T15:34:22.226Z,56.41
2022-10-24T15:36:52.990Z,56.49
2022-10-24T15:39:22.985Z,56.84
2022-10-24T15:41:51.376Z,56.71
2022-10-24T15:44:23.660Z,56.62
2022-10-24T15:46:51.686Z,56.43
2022-10-24T15:49:19.924Z,56.44
2022-10-24T15:51:50.950Z,56.52
2022-10-24T15:54:20.763Z,56.58
2022-10-24T15:56:48.924Z,56.55
2022-10-24T15:59:17.719Z,56.38
2022-10-24T16:01:52.873Z,56.52
2022-10-24T16:04:23.453Z,56.73
2022-10-24T16:06:52.402Z,56.76
2022-10-24T16:09:23.135Z,56.59
2022-10-24T16:11:51.093Z,56.55
2022-10-24T16:14:20.632Z,56.88
2022-10-24T16:16:55.307Z,56.83
2022-10-24T16:19:23.466Z,56.88
2022-10-24T16:21:51.528Z,56.72
2022-10-24T16:24:22.196Z,56.98
2022-10-24T16:26:50.182Z,57.02
2022-10-24T16:29:18.205Z,56.83
2022-10-24T16:31:48.154Z,56.81
2022-10-24T16:34:17.616Z,56.97
2022-10-24T16:36:45.556Z,57.03
2022-10-24T16:39:14.570Z,57.22
2022-10-24T16:41:46.230Z,57.09
2022-10-24T16:44:15.061Z,57.32
2022-10-24T16:46:43.135Z,57.29
2022-10-24T16:49:11.158Z,57.29
2022-10-24T16:51:43.946Z,57.38
2022-10-24T16:54:12.132Z,57.52
2022-10-24T16:56:40.108Z,57.44
2022-10-24T16:59:10.360Z,57.33
2022-10-24T17:01:41.418Z,57.28
2022-10-24T17:04:09.764Z,57.52
2022-10-24T17:06:37.825Z,57.53
2022-10-24T17:09:07.312Z,57.60
2022-10-24T17:11:45.512Z,57.74
2022-10-24T17:14:17.296Z,57.75
2022-10-24T17:16:45.452Z,57.72
2022-10-24T17:19:18.397Z,57.78
2022-10-24T17:21:48.223Z,57.88
2022-10-24T17:24:20.389Z,57.86
2022-10-24T17:26:50.748Z,57.97
2022-10-24T17:29:26.182Z,57.95
2022-10-24T17:31:54.421Z,58.04
2022-10-24T17:34:23.078Z,58.06
2022-10-24T17:36:58.317Z,58.09
2022-10-24T17:39:32.562Z,57.93
2022-10-24T17:42:01.035Z,57.92
2022-10-24T17:44:30.535Z,58.06
2022-10-24T17:47:02.053Z,58.04
2022-10-24T17:49:30.043Z,58.09
2022-10-24T17:51:58.316Z,57.89
2022-10-24T17:54:32.996Z,58.12
2022-10-24T17:57:00.969Z,58.11
2022-10-24T17:59:29.015Z,57.98
2022-10-24T18:01:57.369Z,57.99
2022-10-24T18:04:25.482Z,57.84
2022-10-24T18:06:53.782Z,57.91
2022-10-24T18:09:21.790Z,57.81
2022-10-24T18:11:51.125Z,57.76
2022-10-24T18:14:19.086Z,58.03
2022-10-24T18:16:47.013Z,58.02
2022-10-24T18:19:18.267Z,58.04
2022-10-24T18:21:47.598Z,57.94
2022-10-24T18:24:15.567Z,57.94
2022-10-24T18:26:47.320Z,57.86
2022-10-24T18:29:17.493Z,57.77
2022-10-24T18:31:45.471Z,58.05
2022-10-24T18:34:13.459Z,58.12
2022-10-24T18:36:41.516Z,57.92
2022-10-24T18:39:09.539Z,57.84
2022-10-24T18:41:49.550Z,58.20
2022-10-24T18:44:30.914Z,58.46
2022-10-24T18:47:04.217Z,58.13
2022-10-24T18:49:35.223Z,58.15
2022-10-24T18:52:21.388Z,58.41
2022-10-24T18:55:02.306Z,58.19
2022-10-24T18:57:37.120Z,57.88
2022-10-24T19:00:09.052Z,57.88
2022-10-24T19:02:40.868Z,57.88
2022-10-24T19:05:17.455Z,58.38
2022-10-24T19:07:49.678Z,58.16
2022-10-24T19:10:22.512Z,57.96
2022-10-24T19:12:51.768Z,57.95
2022-10-24T19:15:22.856Z,57.97
2022-10-24T19:17:54.025Z,58.15
2022-10-24T19:20:24.904Z,58.16
2022-10-24T19:22:55.939Z,58.02
2022-10-24T19:25:28.151Z,58.35
2022-10-24T19:27:56.148Z,58.08
2022-10-24T19:30:25.519Z,57.80
2022-10-24T19:32:53.796Z,58.20
2022-10-24T19:35:22.936Z,57.93
2022-10-24T19:37:50.978Z,58.16
2022-10-24T19:40:19.020Z,58.10
2022-10-24T19:42:47.045Z,58.34
2022-10-24T19:45:15.010Z,58.08
2022-10-24T19:47:49.027Z,57.98
2022-10-24T19:50:17.243Z,58.07
2022-10-24T19:52:45.229Z,58.06
2022-10-24T19:55:14.372Z,58.30
2022-10-24T19:57:47.932Z,57.99
2022-10-24T20:00:16.612Z,57.99
2022-10-24T20:02:46.217Z,58.29
2022-10-24T20:05:17.598Z,58.25
2022-10-24T20:07:45.581Z,58.03
2022-10-24T20:10:13.694Z,58.07
2022-10-24T20:12:43.956Z,58.19
2022-10-24T20:15:15.957Z,58.24
2022-10-24T20:17:43.882Z,58.25
2022-10-24T20:20:19.850Z,58.18
2022-10-24T20:22:53.028Z,57.98
2022-10-24T20:25:24.021Z,58.02
2022-10-24T20:27:51.972Z,57.96
2022-10-24T20:30:20.070Z,58.04
2022-10-24T20:32:48.037Z,58.02
2022-10-24T20:35:17.641Z,58.07
2022-10-24T20:37:45.920Z,58.24
2022-10-24T20:40:14.376Z,58.27
2022-10-24T20:42:42.445Z,58.23
2022-10-24T20:45:11.070Z,58.30
2022-10-24T20:47:39.808Z,58.00
2022-10-24T20:50:11.579Z,58.22
2022-10-24T20:52:41.473Z,58.09
2022-10-24T20:55:19.677Z,58.19
2022-10-24T20:57:57.630Z,58.29
2022-10-24T21:00:25.911Z,57.96
2022-10-24T21:02:54.094Z,57.93
2022-10-24T21:05:22.727Z,58.29
2022-10-24T21:07:53.547Z,58.09
2022-10-24T21:10:24.995Z,58.16
2022-10-24T21:12:53.891Z,58.27
2022-10-24T21:15:22.623Z,58.25
2022-10-24T21:17:50.566Z,58.26
2022-10-24T21:20:18.815Z,58.29
2022-10-24T21:22:46.871Z,58.31
2022-10-24T21:25:16.435Z,58.09
2022-10-24T21:27:44.553Z,58.05
2022-10-24T21:30:14.759Z,58.31
2022-10-24T21:32:43.259Z,58.21
2022-10-24T21:35:11.281Z,58.12
2022-10-24T21:37:39.488Z,58.15
2022-10-24T21:40:08.545Z,57.97
2022-10-24T21:42:37.860Z,58.12
2022-10-24T21:45:06.902Z,58.21
2022-10-24T21:47:35.113Z,58.25
2022-10-24T21:50:03.248Z,58.29
2022-10-24T21:52:31.292Z,58.01
2022-10-24T21:54:59.383Z,58.04
2022-10-24T21:57:29.886Z,58.15
2022-10-24T21:59:59.291Z,58.09
2022-10-24T22:02:27.372Z,58.38
2022-10-24T22:04:55.545Z,58.15
2022-10-24T22:07:23.547Z,58.36
2022-10-24T22:09:51.523Z,58.20
2022-10-24T22:12:19.657Z,58.35
2022-10-24T22:14:47.538Z,58.38
2022-10-24T22:17:16.849Z,58.13
2022-10-24T22:19:44.820Z,58.33
2022-10-24T22:22:13.283Z,58.31
2022-10-24T22:24:41.191Z,58.50
2022-10-24T22:27:09.256Z,58.39
2022-10-24T22:29:37.240Z,58.38
2022-10-24T22:32:06.282Z,58.09
2022-10-24T22:34:36.363Z,58.18
2022-10-24T22:37:16.551Z,58.38
2022-10-24T22:39:44.951Z,58.16
2022-10-24T22:42:17.561Z,58.43
2022-10-24T22:44:48.775Z,58.32
2022-10-24T22:47:34.227Z,58.35
2022-10-24T22:50:14.664Z,58.32
2022-10-24T22:52:43.476Z,58.19
2022-10-24T22:55:20.652Z,58.28
2022-10-24T22:57:49.239Z,58.41
2022-10-24T23:00:18.802Z,58.16
2022-10-24T23:02:47.665Z,58.17
2022-10-24T23:05:28.206Z,58.27
2022-10-24T23:08:01.549Z,58.21
2022-10-24T23:10:29.717Z,58.49
2022-10-24T23:12:58.209Z,58.27
2022-10-24T23:15:26.690Z,58.34
2022-10-24T23:17:55.104Z,58.46
2022-10-24T23:20:33.160Z,58.57
2022-10-24T23:23:16.008Z,58.36
2022-10-24T23:25:54.333Z,58.26
2022-10-24T23:28:29.703Z,58.44
2022-10-24T23:30:58.250Z,58.18
2022-10-24T23:33:29.467Z,58.21
2022-10-24T23:36:00.552Z,58.28
2022-10-24T23:38:29.039Z,58.52
2022-10-24T23:40:57.850Z,58.27
2022-10-24T23:43:26.421Z,58.24
2022-10-24T23:46:00.428Z,58.55
2022-10-24T23:48:44.987Z,58.66
2022-10-24T23:51:18.594Z,58.31
2022-10-24T23:53:53.272Z,58.29
2022-10-24T23:56:23.863Z,58.14
2022-10-24T23:58:52.587Z,58.42
